createdAt,value
2023-03-29T00:00:14.567Z,30.10
2023-03-29T00:03:17.489Z,30.32
2023-03-29T00:06:22.040Z,30.66
2023-03-29T00:09:26.764Z,30.14
2023-03-29T00:12:28.992Z,30.34
2023-03-29T00:15:31.349Z,30.42
2023-03-29T00:18:33.620Z,29.96
2023-03-29T00:21:35.759Z,29.62
2023-03-29T00:24:38.015Z,30.22
2023-03-29T00:27:40.518Z,30.50
2023-03-29T00:30:42.651Z,30.38
2023-03-29T00:33:45.758Z,30.26
2023-03-29T00:36:50.994Z,30.08
2023-03-29T00:39:53.284Z,30.20
2023-03-29T00:42:58.062Z,30.88
2023-03-29T00:46:00.424Z,30.86
2023-03-29T00:49:09.339Z,30.57
2023-03-29T00:52:13.282Z,30.90
2023-03-29T00:55:18.784Z,30.58
2023-03-29T00:58:53.185Z,30.95
2023-03-29T01:02:02.352Z,30.16
2023-03-29T01:05:11.942Z,30.73
2023-03-29T01:08:21.720Z,30.29
2023-03-29T01:11:28.340Z,30.64
2023-03-29T01:14:38.153Z,31.07
2023-03-29T01:17:43.395Z,31.40
2023-03-29T01:20:55.539Z,30.43
2023-03-29T01:24:18.153Z,30.99
2023-03-29T01:27:49.837Z,31.38
2023-03-29T01:31:03.775Z,31.49
2023-03-29T01:34:11.356Z,31.25
2023-03-29T01:37:19.079Z,31.51
2023-03-29T01:40:23.530Z,31.27
2023-03-29T01:43:34.434Z,30.88
2023-03-29T01:46:39.591Z,31.66
2023-03-29T01:49:52.187Z,31.95
2023-03-29T01:53:03.610Z,31.32
2023-03-29T01:56:11.767Z,31.55
2023-03-29T01:59:18.664Z,31.61
2023-03-29T02:02:21.690Z,31.68
2023-03-29T02:05:24.532Z,31.83
2023-03-29T02:08:27.949Z,31.79
2023-03-29T02:11:33.440Z,31.81
2023-03-29T02:14:37.207Z,32.15
2023-03-29T02:17:43.682Z,32.19
2023-03-29T02:20:47.391Z,31.95
2023-03-29T02:23:50.590Z,32.22
2023-03-29T02:26:52.820Z,32.04
2023-03-29T02:29:55.195Z,32.16
2023-03-29T02:33:02.019Z,32.50
2023-03-29T02:36:14.583Z,32.43
2023-03-29T02:39:18.027Z,32.61
2023-03-29T02:42:21.106Z,32.14
2023-03-29T02:45:24.044Z,32.14
2023-03-29T02:48:27.261Z,31.63
2023-03-29T02:51:32.841Z,32.18
2023-03-29T02:54:37.914Z,32.06
2023-03-29T02:57:40.973Z,32.27
2023-03-29T03:00:46.483Z,32.65
2023-03-29T03:03:50.633Z,32.22
2023-03-29T03:06:53.401Z,31.82
2023-03-29T03:09:55.903Z,31.96
2023-03-29T03:12:58.111Z,31.73
2023-03-29T03:16:01.180Z,32.09
2023-03-29T03:19:03.840Z,31.84
2023-03-29T03:22:07.636Z,32.42
2023-03-29T03:25:13.105Z,32.31
2023-03-29T03:28:15.513Z,32.73
2023-03-29T03:31:19.567Z,32.14
2023-03-29T03:34:40.349Z,32.65
2023-03-29T03:37:42.963Z,32.89
2023-03-29T03:40:45.449Z,32.35
2023-03-29T03:43:48.992Z,32.77
2023-03-29T03:46:51.968Z,32.83
2023-03-29T03:49:54.211Z,32.83
2023-03-29T03:53:00.002Z,32.93
2023-03-29T03:56:10.761Z,32.70
2023-03-29T03:59:29.796Z,32.53
2023-03-29T04:02:37.288Z,32.88
2023-03-29T04:05:40.803Z,33.29
2023-03-29T04:08:43.841Z,33.32
2023-03-29T04:11:53.162Z,33.41
2023-03-29T04:14:55.979Z,33.68
2023-03-29T04:18:00.591Z,33.59
2023-03-29T04:21:08.842Z,33.30
2023-03-29T04:24:12.201Z,33.78
2023-03-29T04:27:17.634Z,33.84
2023-03-29T04:30:19.995Z,33.49
2023-03-29T04:33:37.418Z,33.39
2023-03-29T04:36:39.919Z,33.64
2023-03-29T04:39:49.855Z,33.28
2023-03-29T04:42:53.532Z,33.48
2023-03-29T04:45:56.914Z,33.05
2023-03-29T04:49:18.552Z,33.17
2023-03-29T04:52:24.752Z,33.42
2023-03-29T04:55:27.939Z,33.23
2023-03-29T04:58:35.570Z,32.94
2023-03-29T05:01:37.856Z,33.35
2023-03-29T05:04:41.078Z,33.21
2023-03-29T05:07:48.461Z,33.65
2023-03-29T05:10:53.502Z,33.92
2023-03-29T05:13:57.309Z,33.39
2023-03-29T05:17:05.276Z,34.06
2023-03-29T05:20:12.829Z,33.84
2023-03-29T05:23:17.520Z,34.04
2023-03-29T05:26:38.549Z,33.79
2023-03-29T05:29:44.765Z,34.65
2023-03-29T05:33:05.701Z,34.15
2023-03-29T05:36:14.062Z,34.89
2023-03-29T05:39:24.378Z,34.28
2023-03-29T05:42:27.387Z,34.49
2023-03-29T05:45:42.075Z,34.38
2023-03-29T05:48:44.353Z,34.14
2023-03-29T05:51:46.709Z,34.17
2023-03-29T05:54:49.321Z,33.51
2023-03-29T05:57:52.734Z,34.42
2023-03-29T06:01:00.510Z,34.15
2023-03-29T06:04:26.614Z,34.28
2023-03-29T06:07:50.330Z,34.60
2023-03-29T06:11:12.162Z,34.47
2023-03-29T06:14:43.107Z,34.66
2023-03-29T06:17:57.148Z,34.74
2023-03-29T06:21:03.104Z,33.78
2023-03-29T06:24:06.884Z,33.75
2023-03-29T06:27:16.246Z,33.81
2023-03-29T06:30:19.667Z,32.62
2023-03-29T06:33:26.607Z,32.47
2023-03-29T06:36:38.818Z,32.29
2023-03-29T06:39:41.714Z,32.17
2023-03-29T06:43:07.041Z,32.03
2023-03-29T06:46:41.379Z,31.44
2023-03-29T06:49:44.438Z,31.36
2023-03-29T06:53:04.347Z,30.72
2023-03-29T06:56:14.802Z,31.05
2023-03-29T06:59:18.247Z,30.59
2023-03-29T07:02:34.490Z,30.98
2023-03-29T07:05:51.848Z,30.26
2023-03-29T07:08:59.663Z,30.38
2023-03-29T07:12:24.161Z,30.65
2023-03-29T07:15:28.729Z,29.85
2023-03-29T07:18:49.514Z,29.43
2023-03-29T07:22:15.394Z,29.71
2023-03-29T07:25:30.292Z,29.03
2023-03-29T07:28:38.398Z,28.68
2023-03-29T07:31:41.955Z,27.67
2023-03-29T07:35:15.812Z,27.07
2023-03-29T07:38:18.733Z,26.93
2023-03-29T07:41:30.324Z,27.22
2023-03-29T07:44:42.605Z,27.07
2023-03-29T07:47:46.822Z,26.77
2023-03-29T07:50:53.729Z,26.66
2023-03-29T07:54:03.264Z,26.71
2023-03-29T07:57:17.142Z,27.20
2023-03-29T08:00:34.614Z,26.70
2023-03-29T08:04:18.128Z,27.65
2023-03-29T08:07:43.173Z,26.84
2023-03-29T08:11:15.244Z,26.70
2023-03-29T08:14:29.193Z,26.46
2023-03-29T08:17:42.356Z,26.41
2023-03-29T08:20:45.265Z,26.53
2023-03-29T08:23:47.722Z,26.41
2023-03-29T08:27:14.144Z,26.21
2023-03-29T08:30:20.642Z,26.03
2023-03-29T08:33:27.455Z,25.37
2023-03-29T08:36:50.518Z,25.18
2023-03-29T08:40:05.540Z,25.11
2023-03-29T08:43:35.651Z,24.91
2023-03-29T08:47:25.364Z,25.06
2023-03-29T08:50:36.679Z,25.19
2023-03-29T08:53:55.112Z,25.35
2023-03-29T08:57:12.410Z,24.76
2023-03-29T09:00:20.549Z,24.93
2023-03-29T09:03:27.277Z,25.10
2023-03-29T09:06:32.773Z,24.71
2023-03-29T09:09:49.067Z,24.67
2023-03-29T09:13:24.280Z,24.87
2023-03-29T09:17:21.505Z,24.45
2023-03-29T09:20:51.444Z,24.62
2023-03-29T09:24:36.889Z,24.76
2023-03-29T09:27:51.129Z,24.61
2023-03-29T09:31:06.276Z,24.44
2023-03-29T09:34:17.668Z,23.76
2023-03-29T09:37:34.616Z,23.45
2023-03-29T09:40:45.333Z,24.37
2023-03-29T09:43:55.391Z,24.27
2023-03-29T09:47:21.616Z,23.66
2023-03-29T09:50:37.313Z,23.97
2023-03-29T09:53:43.713Z,23.96
2023-03-29T09:57:15.710Z,24.11
2023-03-29T10:00:20.861Z,24.14
2023-03-29T10:03:26.268Z,24.26
2023-03-29T10:06:36.838Z,24.65
2023-03-29T10:09:39.422Z,24.64
2023-03-29T10:12:53.232Z,24.61
2023-03-29T10:16:09.384Z,24.42
2023-03-29T10:19:34.500Z,24.49
2023-03-29T10:22:38.252Z,24.60
2023-03-29T10:25:44.939Z,24.49
2023-03-29T10:28:53.264Z,24.01
2023-03-29T10:32:01.885Z,24.85
2023-03-29T10:35:30.512Z,24.36
2023-03-29T10:38:36.142Z,24.69
2023-03-29T10:41:38.950Z,24.53
2023-03-29T10:45:18.822Z,24.55
2023-03-29T10:48:30.237Z,24.54
2023-03-29T10:51:34.441Z,24.10
2023-03-29T10:54:37.285Z,24.06
2023-03-29T10:57:51.880Z,24.40
2023-03-29T11:00:57.656Z,24.31
2023-03-29T11:04:23.084Z,24.50
2023-03-29T11:07:34.636Z,24.30
2023-03-29T11:11:05.216Z,24.30
2023-03-29T11:14:16.100Z,23.96
2023-03-29T11:18:05.869Z,23.84
2023-03-29T11:21:19.850Z,24.00
2023-03-29T11:24:47.953Z,23.81
2023-03-29T11:28:12.092Z,24.03
2023-03-29T11:31:26.139Z,23.88
2023-03-29T11:35:01.516Z,23.84
2023-03-29T11:38:22.048Z,23.02
2023-03-29T11:41:31.785Z,22.62
2023-03-29T11:44:35.125Z,23.46
2023-03-29T11:47:39.811Z,23.52
2023-03-29T11:50:51.293Z,22.83
2023-03-29T11:54:02.079Z,22.97
2023-03-29T11:57:05.854Z,22.83
2023-03-29T12:00:15.618Z,23.53
2023-03-29T12:03:41.182Z,23.37
2023-03-29T12:06:53.345Z,23.04
2023-03-29T12:10:08.932Z,22.62
2023-03-29T12:13:32.351Z,22.69
2023-03-29T12:16:40.318Z,22.79
2023-03-29T12:19:48.805Z,23.03
2023-03-29T12:22:51.770Z,22.61
2023-03-29T12:26:12.232Z,22.66
2023-03-29T12:29:45.546Z,22.80
2023-03-29T12:32:53.412Z,22.72
2023-03-29T12:37:03.678Z,22.72
2023-03-29T12:40:23.224Z,22.85
2023-03-29T12:43:44.152Z,22.89
2023-03-29T12:47:01.497Z,23.11
2023-03-29T12:50:07.072Z,23.17
2023-03-29T12:53:23.271Z,22.75
2023-03-29T12:56:40.922Z,23.58
2023-03-29T12:59:44.556Z,23.15
2023-03-29T13:03:00.186Z,23.09
2023-03-29T13:06:05.313Z,22.91
2023-03-29T13:09:21.594Z,23.09
2023-03-29T13:12:32.941Z,23.20
2023-03-29T13:15:38.912Z,23.09
2023-03-29T13:19:01.654Z,23.19
2023-03-29T13:22:34.550Z,23.22
2023-03-29T13:25:55.605Z,23.46
2023-03-29T13:29:16.372Z,23.85
2023-03-29T13:32:22.166Z,23.70
2023-03-29T13:35:39.752Z,23.99
2023-03-29T13:38:50.658Z,23.69
2023-03-29T13:41:54.435Z,23.65
2023-03-29T13:45:26.476Z,23.96
2023-03-29T13:48:37.903Z,23.97
2023-03-29T13:51:43.194Z,24.29
2023-03-29T13:54:54.505Z,24.58
2023-03-29T13:58:02.714Z,24.28
2023-03-29T14:01:21.002Z,24.47
2023-03-29T14:04:26.981Z,24.30
2023-03-29T14:07:30.622Z,24.45
2023-03-29T14:10:40.685Z,24.21
2023-03-29T14:13:43.257Z,24.33
2023-03-29T14:16:45.681Z,24.38
2023-03-29T14:19:49.066Z,24.25
2023-03-29T14:22:51.621Z,24.26
2023-03-29T14:25:54.054Z,24.11
2023-03-29T14:28:57.657Z,24.32
2023-03-29T14:32:20.506Z,24.12
2023-03-29T14:35:29.556Z,24.54
2023-03-29T14:38:32.290Z,24.80
2023-03-29T14:41:36.820Z,24.57
2023-03-29T14:44:39.238Z,25.15
2023-03-29T14:47:42.792Z,25.40
2023-03-29T14:50:45.920Z,25.59
2023-03-29T14:53:50.854Z,26.15
2023-03-29T14:56:53.992Z,26.24
2023-03-29T15:00:00.907Z,26.34
2023-03-29T15:03:03.577Z,27.09
2023-03-29T15:06:06.338Z,26.63
2023-03-29T15:09:15.218Z,27.12
2023-03-29T15:12:17.773Z,27.15
2023-03-29T15:15:20.371Z,27.11
2023-03-29T15:18:35.112Z,27.40
2023-03-29T15:21:39.407Z,27.56
2023-03-29T15:24:48.199Z,27.57
2023-03-29T15:27:51.838Z,27.59
2023-03-29T15:31:07.672Z,27.76
2023-03-29T15:34:27.841Z,27.86
2023-03-29T15:37:30.694Z,27.54
2023-03-29T15:40:33.174Z,28.28
2023-03-29T15:43:36.260Z,28.14
2023-03-29T15:46:38.598Z,27.69
2023-03-29T15:49:41.132Z,28.01
2023-03-29T15:52:43.356Z,27.98
2023-03-29T15:55:48.256Z,27.85
2023-03-29T15:58:53.350Z,27.83
2023-03-29T16:01:56.221Z,27.84
2023-03-29T16:05:00.002Z,28.00
2023-03-29T16:08:02.279Z,28.19
2023-03-29T16:11:06.732Z,28.47
2023-03-29T16:14:12.032Z,28.72
2023-03-29T16:17:15.840Z,28.63
2023-03-29T16:20:20.093Z,28.61
2023-03-29T16:23:22.591Z,29.02
2023-03-29T16:26:26.221Z,28.93
2023-03-29T16:29:28.821Z,28.82
2023-03-29T16:32:31.395Z,29.03
2023-03-29T16:35:38.380Z,29.36
2023-03-29T16:38:40.914Z,29.29
2023-03-29T16:41:45.153Z,29.16
2023-03-29T16:44:47.298Z,29.23
2023-03-29T16:47:49.879Z,29.44
2023-03-29T16:50:52.161Z,29.52
2023-03-29T16:53:54.470Z,29.35
2023-03-29T16:56:57.742Z,29.86
2023-03-29T17:00:00.041Z,29.38
2023-03-29T17:03:02.559Z,29.50
2023-03-29T17:06:05.613Z,30.35
2023-03-29T17:09:08.103Z,29.86
2023-03-29T17:12:10.448Z,30.36
2023-03-29T17:15:12.764Z,29.92
2023-03-29T17:18:15.042Z,30.30
2023-03-29T17:21:17.403Z,30.20
2023-03-29T17:24:19.629Z,30.83
2023-03-29T17:27:21.950Z,30.49
2023-03-29T17:30:24.270Z,31.13
2023-03-29T17:33:26.493Z,30.70
2023-03-29T17:36:28.984Z,30.62
2023-03-29T17:39:32.170Z,31.22
2023-03-29T17:42:34.324Z,31.69
2023-03-29T17:45:36.614Z,32.24
2023-03-29T17:48:39.191Z,32.45
2023-03-29T17:51:41.425Z,32.96
2023-03-29T17:54:43.734Z,32.98
2023-03-29T17:57:45.858Z,33.27
2023-03-29T18:00:48.115Z,33.78
2023-03-29T18:03:50.471Z,33.89
2023-03-29T18:06:52.732Z,33.88
2023-03-29T18:09:54.889Z,33.92
2023-03-29T18:12:57.069Z,34.44
2023-03-29T18:15:59.541Z,34.55
2023-03-29T18:19:01.820Z,34.46
2023-03-29T18:22:06.621Z,34.66
2023-03-29T18:25:09.568Z,34.98
2023-03-29T18:28:11.842Z,34.91
2023-03-29T18:31:14.617Z,35.20
2023-03-29T18:34:16.847Z,35.50
2023-03-29T18:37:19.020Z,35.76
2023-03-29T18:40:24.618Z,35.65
2023-03-29T18:43:26.892Z,35.73
2023-03-29T18:46:31.368Z,35.78
2023-03-29T18:49:36.709Z,35.87
2023-03-29T18:52:39.158Z,35.83
2023-03-29T18:55:47.757Z,35.87
2023-03-29T18:58:49.949Z,35.56
2023-03-29T19:01:52.297Z,36.39
2023-03-29T19:04:54.508Z,36.55
2023-03-29T19:07:57.606Z,36.64
2023-03-29T19:11:07.795Z,36.65
2023-03-29T19:14:10.009Z,36.69
2023-03-29T19:17:12.505Z,36.75
2023-03-29T19:20:14.814Z,36.68
2023-03-29T19:23:18.311Z,37.03
2023-03-29T19:26:20.684Z,36.84
2023-03-29T19:29:23.586Z,37.10
2023-03-29T19:32:25.825Z,37.10
2023-03-29T19:35:28.221Z,37.44
2023-03-29T19:38:30.545Z,37.39
2023-03-29T19:41:32.869Z,37.46
2023-03-29T19:44:38.257Z,37.53
2023-03-29T19:47:42.973Z,37.41
2023-03-29T19:50:45.936Z,37.53
2023-03-29T19:53:48.653Z,37.74
2023-03-29T19:56:52.843Z,37.70
2023-03-29T19:59:55.701Z,37.54
2023-03-29T20:02:58.494Z,37.59
2023-03-29T20:06:00.935Z,37.47
2023-03-29T20:09:05.246Z,37.88
2023-03-29T20:12:07.845Z,37.57
2023-03-29T20:15:10.530Z,37.62
2023-03-29T20:18:12.917Z,37.99
2023-03-29T20:21:18.720Z,37.75
2023-03-29T20:24:22.202Z,37.60
2023-03-29T20:27:25.478Z,37.37
2023-03-29T20:30:27.749Z,37.42
2023-03-29T20:33:30.049Z,37.48
2023-03-29T20:36:32.329Z,38.50
2023-03-29T20:39:34.624Z,38.18
2023-03-29T20:42:38.255Z,37.98
2023-03-29T20:45:52.096Z,37.83
2023-03-29T20:48:56.091Z,37.91
2023-03-29T20:51:58.867Z,37.88
2023-03-29T20:55:01.248Z,37.86
2023-03-29T20:58:03.822Z,38.12
2023-03-29T21:01:06.447Z,38.30
2023-03-29T21:04:10.829Z,38.02
2023-03-29T21:07:17.239Z,38.39
2023-03-29T21:10:19.565Z,38.05
2023-03-29T21:13:22.177Z,38.09
2023-03-29T21:16:25.375Z,37.85
2023-03-29T21:19:27.880Z,38.40
2023-03-29T21:22:31.167Z,38.29
2023-03-29T21:25:33.523Z,38.41
2023-03-29T21:28:37.673Z,38.26
2023-03-29T21:31:40.720Z,38.30
2023-03-29T21:34:42.971Z,38.59
2023-03-29T21:37:45.141Z,38.17
2023-03-29T21:40:47.422Z,38.25
2023-03-29T21:43:49.607Z,37.92
2023-03-29T21:46:52.399Z,37.94
2023-03-29T21:49:54.552Z,37.93
2023-03-29T21:52:56.767Z,37.93
2023-03-29T21:55:58.997Z,37.84
2023-03-29T21:59:01.640Z,38.01
2023-03-29T22:02:03.942Z,38.00
2023-03-29T22:05:09.437Z,37.95
2023-03-29T22:08:12.018Z,37.91
2023-03-29T22:11:16.252Z,38.36
2023-03-29T22:14:19.478Z,38.25
2023-03-29T22:17:26.849Z,38.55
2023-03-29T22:20:29.668Z,38.63
2023-03-29T22:23:32.078Z,38.89
2023-03-29T22:26:34.768Z,39.15
2023-03-29T22:29:37.370Z,39.02
2023-03-29T22:32:40.354Z,39.08
2023-03-29T22:35:42.713Z,39.15
2023-03-29T22:38:46.214Z,39.31
2023-03-29T22:41:48.828Z,39.53
2023-03-29T22:44:54.021Z,39.64
2023-03-29T22:47:56.717Z,40.00
2023-03-29T22:50:59.712Z,39.66
2023-03-29T22:54:02.075Z,39.99
2023-03-29T22:57:04.567Z,39.36
2023-03-29T23:00:09.278Z,39.56
2023-03-29T23:03:11.817Z,39.46
2023-03-29T23:06:14.084Z,39.77
2023-03-29T23:09:16.711Z,40.13
2023-03-29T23:12:19.087Z,39.78
2023-03-29T23:15:22.969Z,39.79
2023-03-29T23:18:26.585Z,39.87
2023-03-29T23:21:28.839Z,39.86
2023-03-29T23:24:47.849Z,39.93
2023-03-29T23:27:50.365Z,40.14
2023-03-29T23:31:03.216Z,40.03
2023-03-29T23:34:05.799Z,40.44
2023-03-29T23:37:08.121Z,39.99
2023-03-29T23:40:14.277Z,39.79
2023-03-29T23:43:17.080Z,39.78
2023-03-29T23:46:19.370Z,40.02
2023-03-29T23:49:22.835Z,39.99
2023-03-29T23:52:25.995Z,40.33
2023-03-29T23:55:28.423Z,40.07
2023-03-29T23:58:33.051Z,40.46
